sensor_id;sensor_type;location;lat;lon;timestamp;temperature;humidity
18043;DHT22;9146;48.074;11.968;2024-02-14T00:00:21;0.00;99.90
18043;DHT22;9146;48.074;11.968;2024-02-14T00:02:50;0.00;99.90
18043;DHT22;9146;48.074;11.968;2024-02-14T00:05:17;-0.10;99.90
18043;DHT22;9146;48.074;11.968;2024-02-14T00:07:45;-0.10;99.90
18043;DHT22;9146;48.074;11.968;2024-02-14T00:10:12;-0.10;99.90
18043;DHT22;9146;48.074;11.968;2024-02-14T00:12:39;-0.10;99.90
18043;DHT22;9146;48.074;11.968;2024-02-14T00:15:06;-0.10;99.90
18043;DHT22;9146;48.074;11.968;2024-02-14T00:17:35;-0.20;99.90
18043;DHT22;9146;48.074;11.968;2024-02-14T00:20:02;-0.20;99.90
18043;DHT22;9146;48.074;11.968;2024-02-14T00:22:29;-0.30;99.90
18043;DHT22;9146;48.074;11.968;2024-02-14T00:24:56;-0.30;99.90
18043;DHT22;9146;48.074;11.968;2024-02-14T00:27:23;-0.30;99.90
18043;DHT22;9146;48.074;11.968;2024-02-14T00:29:52;-0.40;99.90
18043;DHT22;9146;48.074;11.968;2024-02-14T00:32:22;-0.40;99.90
18043;DHT22;9146;48.074;11.968;2024-02-14T00:34:50;-0.40;99.90
18043;DHT22;9146;48.074;11.968;2024-02-14T00:37:17;-0.40;99.90
18043;DHT22;9146;48.074;11.968;2024-02-14T00:39:44;-0.40;99.90
18043;DHT22;9146;48.074;11.968;2024-02-14T00:42:10;-0.30;99.90
18043;DHT22;9146;48.074;11.968;2024-02-14T00:44:37;-0.30;99.90
18043;DHT22;9146;48.074;11.968;2024-02-14T00:47:04;-0.30;99.90
18043;DHT22;9146;48.074;11.968;2024-02-14T00:49:34;-0.30;99.90
18043;DHT22;9146;48.074;11.968;2024-02-14T00:52:03;-0.20;99.90
18043;DHT22;9146;48.074;11.968;2024-02-14T00:54:30;-0.20;99.90
18043;DHT22;9146;48.074;11.968;2024-02-14T00:56:57;-0.20;99.90
18043;DHT22;9146;48.074;11.968;2024-02-14T00:59:24;-0.10;99.90
18043;DHT22;9146;48.074;11.968;2024-02-14T01:01:51;-0.10;99.90
18043;DHT22;9146;48.074;11.968;2024-02-14T01:04:18;0.00;99.90
18043;DHT22;9146;48.074;11.968;2024-02-14T01:06:45;0.00;99.90
18043;DHT22;9146;48.074;11.968;2024-02-14T01:09:13;0.00;99.90
18043;DHT22;9146;48.074;11.968;2024-02-14T01:11:40;0.10;99.90
18043;DHT22;9146;48.074;11.968;2024-02-14T01:14:07;0.10;99.90
18043;DHT22;9146;48.074;11.968;2024-02-14T01:16:34;0.20;99.90
18043;DHT22;9146;48.074;11.968;2024-02-14T01:19:08;0.20;99.90
18043;DHT22;9146;48.074;11.968;2024-02-14T01:21:35;0.30;99.90
18043;DHT22;9146;48.074;11.968;2024-02-14T01:24:02;0.30;99.90
18043;DHT22;9146;48.074;11.968;2024-02-14T01:26:32;0.30;99.90
18043;DHT22;9146;48.074;11.968;2024-02-14T01:28:59;0.30;99.90
18043;DHT22;9146;48.074;11.968;2024-02-14T01:31:26;0.40;99.90
18043;DHT22;9146;48.074;11.968;2024-02-14T01:33:53;0.50;99.90
18043;DHT22;9146;48.074;11.968;2024-02-14T01:36:20;0.40;99.90
18043;DHT22;9146;48.074;11.968;2024-02-14T01:38:48;0.40;99.90
18043;DHT22;9146;48.074;11.968;2024-02-14T01:41:15;0.50;99.90
18043;DHT22;9146;48.074;11.968;2024-02-14T01:43:43;0.50;99.90
18043;DHT22;9146;48.074;11.968;2024-02-14T01:46:11;0.50;99.90
18043;DHT22;9146;48.074;11.968;2024-02-14T01:48:38;0.50;99.90
18043;DHT22;9146;48.074;11.968;2024-02-14T01:51:06;0.60;99.90
18043;DHT22;9146;48.074;11.968;2024-02-14T01:53:35;0.50;99.90
18043;DHT22;9146;48.074;11.968;2024-02-14T01:56:04;0.60;99.90
18043;DHT22;9146;48.074;11.968;2024-02-14T01:58:31;0.60;99.90
18043;DHT22;9146;48.074;11.968;2024-02-14T02:01:00;0.60;99.90
18043;DHT22;9146;48.074;11.968;2024-02-14T02:03:28;0.60;99.90
18043;DHT22;9146;48.074;11.968;2024-02-14T02:05:58;0.60;99.90
18043;DHT22;9146;48.074;11.968;2024-02-14T02:08:25;0.60;99.90
18043;DHT22;9146;48.074;11.968;2024-02-14T02:10:53;0.70;99.90
18043;DHT22;9146;48.074;11.968;2024-02-14T02:13:19;0.70;99.90
18043;DHT22;9146;48.074;11.968;2024-02-14T02:15:46;0.70;99.90
18043;DHT22;9146;48.074;11.968;2024-02-14T02:18:15;0.80;99.90
18043;DHT22;9146;48.074;11.968;2024-02-14T02:20:42;0.80;99.90
18043;DHT22;9146;48.074;11.968;2024-02-14T02:23:11;0.80;99.90
18043;DHT22;9146;48.074;11.968;2024-02-14T02:25:40;0.90;99.90
18043;DHT22;9146;48.074;11.968;2024-02-14T02:28:07;0.90;99.90
18043;DHT22;9146;48.074;11.968;2024-02-14T02:30:35;0.90;99.90
18043;DHT22;9146;48.074;11.968;2024-02-14T02:33:02;0.90;99.90
18043;DHT22;9146;48.074;11.968;2024-02-14T02:35:29;1.00;99.90
18043;DHT22;9146;48.074;11.968;2024-02-14T02:37:56;1.00;99.90
18043;DHT22;9146;48.074;11.968;2024-02-14T02:40:25;1.00;99.90
18043;DHT22;9146;48.074;11.968;2024-02-14T02:42:52;1.10;99.90
18043;DHT22;9146;48.074;11.968;2024-02-14T02:45:19;1.10;99.90
18043;DHT22;9146;48.074;11.968;2024-02-14T02:47:46;1.10;99.90
18043;DHT22;9146;48.074;11.968;2024-02-14T02:50:13;1.10;99.90
18043;DHT22;9146;48.074;11.968;2024-02-14T02:52:40;1.10;99.90
18043;DHT22;9146;48.074;11.968;2024-02-14T02:55:07;1.20;99.90
18043;DHT22;9146;48.074;11.968;2024-02-14T02:57:36;1.20;99.90
18043;DHT22;9146;48.074;11.968;2024-02-14T03:00:06;1.20;99.90
18043;DHT22;9146;48.074;11.968;2024-02-14T03:02:35;1.20;99.90
18043;DHT22;9146;48.074;11.968;2024-02-14T03:05:04;1.20;99.90
18043;DHT22;9146;48.074;11.968;2024-02-14T03:07:34;1.10;99.90
18043;DHT22;9146;48.074;11.968;2024-02-14T03:10:00;0.90;99.90
18043;DHT22;9146;48.074;11.968;2024-02-14T03:12:29;0.90;99.90
18043;DHT22;9146;48.074;11.968;2024-02-14T03:14:58;0.80;99.90
18043;DHT22;9146;48.074;11.968;2024-02-14T03:17:25;0.60;99.90
18043;DHT22;9146;48.074;11.968;2024-02-14T03:19:54;0.50;99.90
18043;DHT22;9146;48.074;11.968;2024-02-14T03:22:22;0.40;99.90
18043;DHT22;9146;48.074;11.968;2024-02-14T03:24:49;0.30;99.90
18043;DHT22;9146;48.074;11.968;2024-02-14T03:27:15;0.20;99.90
18043;DHT22;9146;48.074;11.968;2024-02-14T03:29:44;0.20;99.90
18043;DHT22;9146;48.074;11.968;2024-02-14T03:32:14;0.10;99.90
18043;DHT22;9146;48.074;11.968;2024-02-14T03:34:41;0.10;99.90
18043;DHT22;9146;48.074;11.968;2024-02-14T03:37:08;0.00;99.90
18043;DHT22;9146;48.074;11.968;2024-02-14T03:39:34;-0.10;99.90
18043;DHT22;9146;48.074;11.968;2024-02-14T03:42:03;-0.10;99.90
18043;DHT22;9146;48.074;11.968;2024-02-14T03:44:33;-0.10;99.90
18043;DHT22;9146;48.074;11.968;2024-02-14T03:47:00;-0.20;99.90
18043;DHT22;9146;48.074;11.968;2024-02-14T03:49:30;-0.20;99.90
18043;DHT22;9146;48.074;11.968;2024-02-14T03:51:57;-0.20;99.90
18043;DHT22;9146;48.074;11.968;2024-02-14T03:54:24;-0.30;99.90
18043;DHT22;9146;48.074;11.968;2024-02-14T03:56:51;-0.30;99.90
18043;DHT22;9146;48.074;11.968;2024-02-14T03:59:18;-0.30;99.90
18043;DHT22;9146;48.074;11.968;2024-02-14T04:01:49;-0.30;99.90
18043;DHT22;9146;48.074;11.968;2024-02-14T04:04:19;-0.30;99.90
18043;DHT22;9146;48.074;11.968;2024-02-14T04:06:47;-0.30;99.90
18043;DHT22;9146;48.074;11.968;2024-02-14T04:09:14;-0.30;99.90
18043;DHT22;9146;48.074;11.968;2024-02-14T04:11:41;-0.30;99.90
18043;DHT22;9146;48.074;11.968;2024-02-14T04:14:08;-0.30;99.90
18043;DHT22;9146;48.074;11.968;2024-02-14T04:16:35;-0.30;99.90
18043;DHT22;9146;48.074;11.968;2024-02-14T04:19:03;-0.30;99.90
18043;DHT22;9146;48.074;11.968;2024-02-14T04:21:31;-0.40;99.90
18043;DHT22;9146;48.074;11.968;2024-02-14T04:24:00;-0.40;99.90
18043;DHT22;9146;48.074;11.968;2024-02-14T04:26:26;-0.50;99.90
18043;DHT22;9146;48.074;11.968;2024-02-14T04:28:53;-0.50;99.90
18043;DHT22;9146;48.074;11.968;2024-02-14T04:31:20;-0.50;99.90
18043;DHT22;9146;48.074;11.968;2024-02-14T04:33:47;-0.50;99.90
18043;DHT22;9146;48.074;11.968;2024-02-14T04:36:17;-0.50;99.90
18043;DHT22;9146;48.074;11.968;2024-02-14T04:38:44;-0.50;99.90
18043;DHT22;9146;48.074;11.968;2024-02-14T04:41:13;-0.60;99.90
18043;DHT22;9146;48.074;11.968;2024-02-14T04:43:40;-0.60;99.90
18043;DHT22;9146;48.074;11.968;2024-02-14T04:46:07;-0.70;99.90
18043;DHT22;9146;48.074;11.968;2024-02-14T04:48:34;-0.70;99.90
18043;DHT22;9146;48.074;11.968;2024-02-14T04:51:02;-0.70;99.90
18043;DHT22;9146;48.074;11.968;2024-02-14T04:53:30;-0.70;99.90
18043;DHT22;9146;48.074;11.968;2024-02-14T04:55:57;-0.70;99.90
18043;DHT22;9146;48.074;11.968;2024-02-14T04:58:25;-0.70;99.90
18043;DHT22;9146;48.074;11.968;2024-02-14T05:00:52;-0.70;99.90
18043;DHT22;9146;48.074;11.968;2024-02-14T05:03:20;-0.70;99.90
18043;DHT22;9146;48.074;11.968;2024-02-14T05:05:49;-0.70;99.90
18043;DHT22;9146;48.074;11.968;2024-02-14T05:08:16;-0.70;99.90
18043;DHT22;9146;48.074;11.968;2024-02-14T05:10:43;-0.60;99.90
18043;DHT22;9146;48.074;11.968;2024-02-14T05:13:11;-0.50;99.90
18043;DHT22;9146;48.074;11.968;2024-02-14T05:15:40;-0.40;99.90
18043;DHT22;9146;48.074;11.968;2024-02-14T05:18:07;-0.30;99.90
18043;DHT22;9146;48.074;11.968;2024-02-14T05:20:35;-0.20;99.90
18043;DHT22;9146;48.074;11.968;2024-02-14T05:23:03;-0.10;99.90
18043;DHT22;9146;48.074;11.968;2024-02-14T05:25:30;0.00;99.90
18043;DHT22;9146;48.074;11.968;2024-02-14T05:27:58;0.00;99.90
18043;DHT22;9146;48.074;11.968;2024-02-14T05:30:26;0.10;99.90
18043;DHT22;9146;48.074;11.968;2024-02-14T05:32:54;0.20;99.90
18043;DHT22;9146;48.074;11.968;2024-02-14T05:35:22;0.20;99.90
18043;DHT22;9146;48.074;11.968;2024-02-14T05:37:49;0.30;99.90
18043;DHT22;9146;48.074;11.968;2024-02-14T05:40:17;0.40;99.90
18043;DHT22;9146;48.074;11.968;2024-02-14T05:42:44;0.50;99.90
18043;DHT22;9146;48.074;11.968;2024-02-14T05:45:11;0.50;99.90
18043;DHT22;9146;48.074;11.968;2024-02-14T05:47:38;0.50;99.90
18043;DHT22;9146;48.074;11.968;2024-02-14T05:50:08;0.60;99.90
18043;DHT22;9146;48.074;11.968;2024-02-14T05:52:37;0.60;99.90
18043;DHT22;9146;48.074;11.968;2024-02-14T05:55:04;0.60;99.90
18043;DHT22;9146;48.074;11.968;2024-02-14T05:57:31;0.70;99.90
18043;DHT22;9146;48.074;11.968;2024-02-14T05:59:58;0.70;99.90
18043;DHT22;9146;48.074;11.968;2024-02-14T06:02:28;0.70;99.90
18043;DHT22;9146;48.074;11.968;2024-02-14T06:04:55;0.80;99.90
18043;DHT22;9146;48.074;11.968;2024-02-14T06:07:23;0.80;99.90
18043;DHT22;9146;48.074;11.968;2024-02-14T06:09:50;0.80;99.90
18043;DHT22;9146;48.074;11.968;2024-02-14T06:12:17;0.80;99.90
18043;DHT22;9146;48.074;11.968;2024-02-14T06:14:47;0.90;99.90
18043;DHT22;9146;48.074;11.968;2024-02-14T06:17:14;0.90;99.90
18043;DHT22;9146;48.074;11.968;2024-02-14T06:19:42;1.00;99.90
18043;DHT22;9146;48.074;11.968;2024-02-14T06:22:08;1.10;99.90
18043;DHT22;9146;48.074;11.968;2024-02-14T06:24:37;1.10;99.90
18043;DHT22;9146;48.074;11.968;2024-02-14T06:27:05;1.20;99.90
18043;DHT22;9146;48.074;11.968;2024-02-14T06:29:31;1.20;99.90
18043;DHT22;9146;48.074;11.968;2024-02-14T06:31:58;1.30;99.90
18043;DHT22;9146;48.074;11.968;2024-02-14T06:34:25;1.30;99.90
18043;DHT22;9146;48.074;11.968;2024-02-14T06:36:53;1.40;99.90
18043;DHT22;9146;48.074;11.968;2024-02-14T06:39:20;1.40;99.90
18043;DHT22;9146;48.074;11.968;2024-02-14T06:41:48;1.50;99.90
18043;DHT22;9146;48.074;11.968;2024-02-14T06:44:15;1.50;99.90
18043;DHT22;9146;48.074;11.968;2024-02-14T06:46:43;1.50;99.90
18043;DHT22;9146;48.074;11.968;2024-02-14T06:49:10;1.60;99.90
18043;DHT22;9146;48.074;11.968;2024-02-14T06:51:37;1.60;99.90
18043;DHT22;9146;48.074;11.968;2024-02-14T06:54:04;1.70;99.90
18043;DHT22;9146;48.074;11.968;2024-02-14T06:56:31;1.70;99.90
18043;DHT22;9146;48.074;11.968;2024-02-14T06:58:59;1.80;99.90
18043;DHT22;9146;48.074;11.968;2024-02-14T07:01:28;1.80;99.90
18043;DHT22;9146;48.074;11.968;2024-02-14T07:03:55;1.90;99.90
18043;DHT22;9146;48.074;11.968;2024-02-14T07:06:22;1.90;99.90
18043;DHT22;9146;48.074;11.968;2024-02-14T07:08:49;2.00;99.90
18043;DHT22;9146;48.074;11.968;2024-02-14T07:11:16;2.10;99.90
18043;DHT22;9146;48.074;11.968;2024-02-14T07:13:44;2.10;99.90
18043;DHT22;9146;48.074;11.968;2024-02-14T07:16:12;2.20;99.90
18043;DHT22;9146;48.074;11.968;2024-02-14T07:18:39;2.30;99.90
18043;DHT22;9146;48.074;11.968;2024-02-14T07:21:06;2.40;99.90
18043;DHT22;9146;48.074;11.968;2024-02-14T07:23:33;2.50;99.90
18043;DHT22;9146;48.074;11.968;2024-02-14T07:26:00;2.50;99.90
18043;DHT22;9146;48.074;11.968;2024-02-14T07:28:28;2.60;99.90
18043;DHT22;9146;48.074;11.968;2024-02-14T07:30:54;2.60;99.90
18043;DHT22;9146;48.074;11.968;2024-02-14T07:33:23;2.70;99.90
18043;DHT22;9146;48.074;11.968;2024-02-14T07:35:50;2.70;99.90
18043;DHT22;9146;48.074;11.968;2024-02-14T07:38:17;2.80;99.90
18043;DHT22;9146;48.074;11.968;2024-02-14T07:40:44;2.80;99.90
18043;DHT22;9146;48.074;11.968;2024-02-14T07:43:11;2.80;99.90
18043;DHT22;9146;48.074;11.968;2024-02-14T07:45:38;2.90;99.90
18043;DHT22;9146;48.074;11.968;2024-02-14T07:48:05;2.90;99.90
18043;DHT22;9146;48.074;11.968;2024-02-14T07:50:33;3.00;99.90
18043;DHT22;9146;48.074;11.968;2024-02-14T07:53:01;3.10;99.90
18043;DHT22;9146;48.074;11.968;2024-02-14T07:55:28;3.10;99.90
18043;DHT22;9146;48.074;11.968;2024-02-14T07:57:54;3.20;99.90
18043;DHT22;9146;48.074;11.968;2024-02-14T08:00:21;3.30;99.90
18043;DHT22;9146;48.074;11.968;2024-02-14T08:02:49;3.40;99.90
18043;DHT22;9146;48.074;11.968;2024-02-14T08:05:16;3.60;99.90
18043;DHT22;9146;48.074;11.968;2024-02-14T08:07:45;3.60;99.90
18043;DHT22;9146;48.074;11.968;2024-02-14T08:10:13;3.80;99.90
18043;DHT22;9146;48.074;11.968;2024-02-14T08:12:40;3.90;99.90
18043;DHT22;9146;48.074;11.968;2024-02-14T08:15:08;4.00;99.90
18043;DHT22;9146;48.074;11.968;2024-02-14T08:17:35;4.10;99.90
18043;DHT22;9146;48.074;11.968;2024-02-14T08:20:01;4.20;99.90
18043;DHT22;9146;48.074;11.968;2024-02-14T08:22:30;4.30;99.90
18043;DHT22;9146;48.074;11.968;2024-02-14T08:24:58;4.30;99.90
18043;DHT22;9146;48.074;11.968;2024-02-14T08:27:25;4.30;99.90
18043;DHT22;9146;48.074;11.968;2024-02-14T08:29:53;4.40;99.90
18043;DHT22;9146;48.074;11.968;2024-02-14T08:32:20;4.40;99.90
18043;DHT22;9146;48.074;11.968;2024-02-14T08:34:48;4.40;99.90
18043;DHT22;9146;48.074;11.968;2024-02-14T08:37:15;4.50;99.90
18043;DHT22;9146;48.074;11.968;2024-02-14T08:39:42;4.50;99.90
18043;DHT22;9146;48.074;11.968;2024-02-14T08:42:11;4.60;99.90
18043;DHT22;9146;48.074;11.968;2024-02-14T08:44:38;4.70;99.90
18043;DHT22;9146;48.074;11.968;2024-02-14T08:47:06;4.80;99.90
18043;DHT22;9146;48.074;11.968;2024-02-14T08:49:34;4.80;99.90
18043;DHT22;9146;48.074;11.968;2024-02-14T08:52:01;5.00;99.90
18043;DHT22;9146;48.074;11.968;2024-02-14T08:54:28;5.10;99.90
18043;DHT22;9146;48.074;11.968;2024-02-14T08:56:55;5.30;99.90
18043;DHT22;9146;48.074;11.968;2024-02-14T08:59:25;5.40;99.90
18043;DHT22;9146;48.074;11.968;2024-02-14T09:01:53;5.50;99.90
18043;DHT22;9146;48.074;11.968;2024-02-14T09:04:19;5.60;99.90
18043;DHT22;9146;48.074;11.968;2024-02-14T09:06:46;5.70;99.90
18043;DHT22;9146;48.074;11.968;2024-02-14T09:09:13;5.70;99.90
18043;DHT22;9146;48.074;11.968;2024-02-14T09:11:41;5.80;99.90
18043;DHT22;9146;48.074;11.968;2024-02-14T09:14:08;5.80;99.90
18043;DHT22;9146;48.074;11.968;2024-02-14T09:16:37;6.00;99.90
18043;DHT22;9146;48.074;11.968;2024-02-14T09:19:04;6.00;99.90
18043;DHT22;9146;48.074;11.968;2024-02-14T09:21:33;6.10;99.90
18043;DHT22;9146;48.074;11.968;2024-02-14T09:24:01;6.20;99.90
18043;DHT22;9146;48.074;11.968;2024-02-14T09:26:28;6.20;99.90
18043;DHT22;9146;48.074;11.968;2024-02-14T09:28:55;6.30;99.90
18043;DHT22;9146;48.074;11.968;2024-02-14T09:31:22;6.30;99.90
18043;DHT22;9146;48.074;11.968;2024-02-14T09:33:50;6.40;99.90
18043;DHT22;9146;48.074;11.968;2024-02-14T09:36:24;6.50;99.90
18043;DHT22;9146;48.074;11.968;2024-02-14T09:38:51;6.60;99.90
18043;DHT22;9146;48.074;11.968;2024-02-14T09:41:22;6.80;99.90
18043;DHT22;9146;48.074;11.968;2024-02-14T09:43:50;6.90;99.90
18043;DHT22;9146;48.074;11.968;2024-02-14T09:46:18;7.10;99.90
18043;DHT22;9146;48.074;11.968;2024-02-14T09:48:45;7.30;99.90
18043;DHT22;9146;48.074;11.968;2024-02-14T09:51:14;7.50;99.90
18043;DHT22;9146;48.074;11.968;2024-02-14T09:53:41;7.60;99.90
18043;DHT22;9146;48.074;11.968;2024-02-14T09:56:10;7.70;99.90
18043;DHT22;9146;48.074;11.968;2024-02-14T09:58:40;7.80;99.90
18043;DHT22;9146;48.074;11.968;2024-02-14T10:01:07;7.80;99.90
18043;DHT22;9146;48.074;11.968;2024-02-14T10:03:34;7.80;99.90
18043;DHT22;9146;48.074;11.968;2024-02-14T10:06:02;7.70;99.90
18043;DHT22;9146;48.074;11.968;2024-02-14T10:08:32;7.70;99.90
18043;DHT22;9146;48.074;11.968;2024-02-14T10:10:59;7.60;99.90
18043;DHT22;9146;48.074;11.968;2024-02-14T10:13:29;7.70;99.90
18043;DHT22;9146;48.074;11.968;2024-02-14T10:15:57;7.80;99.90
18043;DHT22;9146;48.074;11.968;2024-02-14T10:18:24;8.00;99.90
18043;DHT22;9146;48.074;11.968;2024-02-14T10:20:53;8.10;99.90
18043;DHT22;9146;48.074;11.968;2024-02-14T10:23:20;8.30;99.90
18043;DHT22;9146;48.074;11.968;2024-02-14T10:25:50;8.40;99.90
18043;DHT22;9146;48.074;11.968;2024-02-14T10:28:17;8.50;99.90
18043;DHT22;9146;48.074;11.968;2024-02-14T10:30:45;8.50;99.90
18043;DHT22;9146;48.074;11.968;2024-02-14T10:33:12;8.50;99.90
18043;DHT22;9146;48.074;11.968;2024-02-14T10:35:41;8.50;99.90
18043;DHT22;9146;48.074;11.968;2024-02-14T10:38:09;8.50;99.90
18043;DHT22;9146;48.074;11.968;2024-02-14T10:40:37;8.60;99.90
18043;DHT22;9146;48.074;11.968;2024-02-14T10:43:07;8.60;99.90
18043;DHT22;9146;48.074;11.968;2024-02-14T10:45:35;8.70;99.90
18043;DHT22;9146;48.074;11.968;2024-02-14T10:48:04;8.70;99.90
18043;DHT22;9146;48.074;11.968;2024-02-14T10:50:33;8.70;99.90
18043;DHT22;9146;48.074;11.968;2024-02-14T10:53:04;8.70;99.90
18043;DHT22;9146;48.074;11.968;2024-02-14T10:55:33;8.70;99.90
18043;DHT22;9146;48.074;11.968;2024-02-14T10:58:01;8.70;99.90
18043;DHT22;9146;48.074;11.968;2024-02-14T11:00:30;8.90;99.90
18043;DHT22;9146;48.074;11.968;2024-02-14T11:02:59;8.90;99.90
18043;DHT22;9146;48.074;11.968;2024-02-14T11:05:27;9.10;99.90
18043;DHT22;9146;48.074;11.968;2024-02-14T11:07:54;9.10;99.90
18043;DHT22;9146;48.074;11.968;2024-02-14T11:10:22;9.10;99.90
18043;DHT22;9146;48.074;11.968;2024-02-14T11:12:50;9.10;99.90
18043;DHT22;9146;48.074;11.968;2024-02-14T11:15:19;9.10;99.90
18043;DHT22;9146;48.074;11.968;2024-02-14T11:17:49;9.00;99.90
18043;DHT22;9146;48.074;11.968;2024-02-14T11:20:19;9.00;99.90
18043;DHT22;9146;48.074;11.968;2024-02-14T11:22:55;8.90;99.90
18043;DHT22;9146;48.074;11.968;2024-02-14T11:25:27;9.00;99.90
18043;DHT22;9146;48.074;11.968;2024-02-14T11:27:55;9.00;99.90
18043;DHT22;9146;48.074;11.968;2024-02-14T11:30:29;9.10;99.90
18043;DHT22;9146;48.074;11.968;2024-02-14T11:33:14;9.40;99.90
18043;DHT22;9146;48.074;11.968;2024-02-14T11:35:42;9.60;99.90
18043;DHT22;9146;48.074;11.968;2024-02-14T11:38:09;9.80;99.90
18043;DHT22;9146;48.074;11.968;2024-02-14T11:40:36;10.00;99.90
18043;DHT22;9146;48.074;11.968;2024-02-14T11:43:05;10.00;99.90
18043;DHT22;9146;48.074;11.968;2024-02-14T11:45:31;9.90;99.90
18043;DHT22;9146;48.074;11.968;2024-02-14T11:47:58;9.80;99.90
18043;DHT22;9146;48.074;11.968;2024-02-14T11:50:26;9.70;99.90
18043;DHT22;9146;48.074;11.968;2024-02-14T11:52:54;9.50;99.90
18043;DHT22;9146;48.074;11.968;2024-02-14T11:55:27;9.40;99.90
18043;DHT22;9146;48.074;11.968;2024-02-14T11:57:54;9.30;99.90
18043;DHT22;9146;48.074;11.968;2024-02-14T12:00:22;9.30;99.90
18043;DHT22;9146;48.074;11.968;2024-02-14T12:02:50;9.30;99.90
18043;DHT22;9146;48.074;11.968;2024-02-14T12:05:17;9.30;99.90
18043;DHT22;9146;48.074;11.968;2024-02-14T12:07:46;9.40;99.90
18043;DHT22;9146;48.074;11.968;2024-02-14T12:10:13;9.60;99.90
18043;DHT22;9146;48.074;11.968;2024-02-14T12:12:40;9.80;99.90
18043;DHT22;9146;48.074;11.968;2024-02-14T12:15:10;10.10;99.90
18043;DHT22;9146;48.074;11.968;2024-02-14T12:17:36;10.40;99.90
18043;DHT22;9146;48.074;11.968;2024-02-14T12:20:08;10.70;99.90
18043;DHT22;9146;48.074;11.968;2024-02-14T12:22:37;11.10;99.90
18043;DHT22;9146;48.074;11.968;2024-02-14T12:25:06;11.30;99.90
18043;DHT22;9146;48.074;11.968;2024-02-14T12:27:33;11.60;99.90
18043;DHT22;9146;48.074;11.968;2024-02-14T12:30:03;11.80;99.90
18043;DHT22;9146;48.074;11.968;2024-02-14T12:32:30;12.00;99.90
18043;DHT22;9146;48.074;11.968;2024-02-14T12:34:58;12.10;99.90
18043;DHT22;9146;48.074;11.968;2024-02-14T12:37:25;12.20;99.90
18043;DHT22;9146;48.074;11.968;2024-02-14T12:39:52;12.20;99.90
18043;DHT22;9146;48.074;11.968;2024-02-14T12:42:22;12.20;99.90
18043;DHT22;9146;48.074;11.968;2024-02-14T12:44:51;12.20;99.90
18043;DHT22;9146;48.074;11.968;2024-02-14T12:47:19;12.20;99.90
18043;DHT22;9146;48.074;11.968;2024-02-14T12:49:47;12.10;99.90
18043;DHT22;9146;48.074;11.968;2024-02-14T12:52:15;12.00;99.90
18043;DHT22;9146;48.074;11.968;2024-02-14T12:54:43;11.90;99.90
18043;DHT22;9146;48.074;11.968;2024-02-14T12:57:10;11.80;99.90
18043;DHT22;9146;48.074;11.968;2024-02-14T12:59:38;11.80;99.90
18043;DHT22;9146;48.074;11.968;2024-02-14T13:02:05;11.90;99.90
18043;DHT22;9146;48.074;11.968;2024-02-14T13:04:33;11.90;99.90
18043;DHT22;9146;48.074;11.968;2024-02-14T13:07:00;12.10;99.90
18043;DHT22;9146;48.074;11.968;2024-02-14T13:09:27;12.20;99.90
18043;DHT22;9146;48.074;11.968;2024-02-14T13:11:54;12.30;99.90
18043;DHT22;9146;48.074;11.968;2024-02-14T13:14:21;12.40;99.90
18043;DHT22;9146;48.074;11.968;2024-02-14T13:16:49;12.40;99.90
18043;DHT22;9146;48.074;11.968;2024-02-14T13:19:16;12.50;99.90
18043;DHT22;9146;48.074;11.968;2024-02-14T13:21:43;12.40;99.90
18043;DHT22;9146;48.074;11.968;2024-02-14T13:24:12;12.40;99.90
18043;DHT22;9146;48.074;11.968;2024-02-14T13:26:39;12.40;99.90
18043;DHT22;9146;48.074;11.968;2024-02-14T13:29:06;12.40;99.90
18043;DHT22;9146;48.074;11.968;2024-02-14T13:31:33;12.20;99.90
18043;DHT22;9146;48.074;11.968;2024-02-14T13:34:02;12.10;99.90
18043;DHT22;9146;48.074;11.968;2024-02-14T13:36:30;12.00;99.90
18043;DHT22;9146;48.074;11.968;2024-02-14T13:38:57;11.80;99.90
18043;DHT22;9146;48.074;11.968;2024-02-14T13:41:25;11.30;99.90
18043;DHT22;9146;48.074;11.968;2024-02-14T13:43:52;10.80;99.90
18043;DHT22;9146;48.074;11.968;2024-02-14T13:46:19;10.20;99.90
18043;DHT22;9146;48.074;11.968;2024-02-14T13:48:46;9.80;99.90
18043;DHT22;9146;48.074;11.968;2024-02-14T13:51:14;9.50;99.90
18043;DHT22;9146;48.074;11.968;2024-02-14T13:53:41;9.40;99.90
18043;DHT22;9146;48.074;11.968;2024-02-14T13:56:09;9.40;99.90
18043;DHT22;9146;48.074;11.968;2024-02-14T13:58:36;9.40;99.90
18043;DHT22;9146;48.074;11.968;2024-02-14T14:01:04;9.50;99.90
18043;DHT22;9146;48.074;11.968;2024-02-14T14:03:32;9.50;99.90
18043;DHT22;9146;48.074;11.968;2024-02-14T14:06:02;9.60;99.90
18043;DHT22;9146;48.074;11.968;2024-02-14T14:08:33;9.80;99.90
18043;DHT22;9146;48.074;11.968;2024-02-14T14:11:02;10.00;99.90
18043;DHT22;9146;48.074;11.968;2024-02-14T14:13:29;10.10;99.90
18043;DHT22;9146;48.074;11.968;2024-02-14T14:15:56;10.30;99.90
18043;DHT22;9146;48.074;11.968;2024-02-14T14:18:23;10.40;99.90
18043;DHT22;9146;48.074;11.968;2024-02-14T14:20:50;10.50;99.90
18043;DHT22;9146;48.074;11.968;2024-02-14T14:23:18;10.60;99.90
18043;DHT22;9146;48.074;11.968;2024-02-14T14:25:46;10.70;99.90
18043;DHT22;9146;48.074;11.968;2024-02-14T14:28:13;10.70;99.90
18043;DHT22;9146;48.074;11.968;2024-02-14T14:30:41;10.90;99.90
18043;DHT22;9146;48.074;11.968;2024-02-14T14:33:07;11.00;99.90
18043;DHT22;9146;48.074;11.968;2024-02-14T14:35:35;11.10;99.90
18043;DHT22;9146;48.074;11.968;2024-02-14T14:38:02;11.10;99.90
18043;DHT22;9146;48.074;11.968;2024-02-14T14:40:29;11.20;99.90
18043;DHT22;9146;48.074;11.968;2024-02-14T14:42:57;11.20;99.90
18043;DHT22;9146;48.074;11.968;2024-02-14T14:45:25;11.10;99.90
18043;DHT22;9146;48.074;11.968;2024-02-14T14:47:53;11.10;99.90
18043;DHT22;9146;48.074;11.968;2024-02-14T14:50:21;11.10;99.90
18043;DHT22;9146;48.074;11.968;2024-02-14T14:52:48;11.10;99.90
18043;DHT22;9146;48.074;11.968;2024-02-14T14:55:15;11.10;99.90
18043;DHT22;9146;48.074;11.968;2024-02-14T14:57:42;11.10;99.90
18043;DHT22;9146;48.074;11.968;2024-02-14T15:00:12;11.00;99.90
18043;DHT22;9146;48.074;11.968;2024-02-14T15:02:39;11.10;99.90
18043;DHT22;9146;48.074;11.968;2024-02-14T15:05:08;11.10;99.90
18043;DHT22;9146;48.074;11.968;2024-02-14T15:07:35;11.10;99.90
18043;DHT22;9146;48.074;11.968;2024-02-14T15:10:03;11.10;99.90
18043;DHT22;9146;48.074;11.968;2024-02-14T15:12:30;11.10;99.90
18043;DHT22;9146;48.074;11.968;2024-02-14T15:14:59;11.00;99.90
18043;DHT22;9146;48.074;11.968;2024-02-14T15:17:28;11.00;99.90
18043;DHT22;9146;48.074;11.968;2024-02-14T15:19:55;11.00;99.90
18043;DHT22;9146;48.074;11.968;2024-02-14T15:22:22;11.00;99.90
18043;DHT22;9146;48.074;11.968;2024-02-14T15:24:50;11.00;99.90
18043;DHT22;9146;48.074;11.968;2024-02-14T15:27:18;11.00;99.90
18043;DHT22;9146;48.074;11.968;2024-02-14T15:29:49;11.10;99.90
18043;DHT22;9146;48.074;11.968;2024-02-14T15:32:35;11.10;99.90
18043;DHT22;9146;48.074;11.968;2024-02-14T15:35:20;11.10;99.90
18043;DHT22;9146;48.074;11.968;2024-02-14T15:37:47;11.10;99.90
18043;DHT22;9146;48.074;11.968;2024-02-14T15:40:15;11.10;99.90
18043;DHT22;9146;48.074;11.968;2024-02-14T15:42:42;11.00;99.90